Time;durP1;ratioP1;P1;durP2;ratioP2;P2;SDS_P1;SDS_P2;PMS_P1;PMS_P2;Temp;Humidity;BMP_temperature;BMP_pressure;BME280_temperature;BME280_humidity;BME280_pressure;Samples;Min_cycle;Max_cycle;Signal;HPM_P1;HPM_P2
2022/03/25 00:01:25;;;;;;;46.92;18.10;;;6.20;99.90;;;;;;5011360;28;20050;-57
2022/03/25 00:03:53;;;;;;;45.08;17.55;;;6.20;99.90;;;;;;5028419;28;20041;-57
2022/03/25 00:06:22;;;;;;;42.10;18.15;;;6.10;99.90;;;;;;5027982;28;20045;-57
2022/03/25 00:08:49;;;;;;;44.10;17.50;;;6.10;99.90;;;;;;5028219;28;20049;-57
2022/03/25 00:11:17;;;;;;;51.97;19.75;;;6.10;99.90;;;;;;5013037;28;20379;-57
2022/03/25 00:13:45;;;;;;;41.78;18.40;;;6.00;99.90;;;;;;5018432;28;20060;-57
2022/03/25 00:16:13;;;;;;;54.40;19.95;;;6.00;99.90;;;;;;5027894;28;20060;-57
2022/03/25 00:18:41;;;;;;;50.25;21.17;;;5.90;99.90;;;;;;5028410;28;20052;-57
2022/03/25 00:21:09;;;;;;;44.00;19.00;;;5.90;99.90;;;;;;5028453;28;20539;-57
2022/03/25 00:23:36;;;;;;;51.55;18.58;;;5.90;99.90;;;;;;5008368;28;20045;-57
2022/03/25 00:26:05;;;;;;;48.08;19.63;;;5.80;99.90;;;;;;5011208;28;20052;-57
2022/03/25 00:28:32;;;;;;;48.13;20.25;;;5.80;99.90;;;;;;5027837;28;20057;-57
2022/03/25 00:31:01;;;;;;;47.50;18.83;;;5.70;99.90;;;;;;5022548;28;20401;-59
2022/03/25 00:33:30;;;;;;;40.42;17.95;;;5.70;99.90;;;;;;5022844;28;20050;-57
2022/03/25 00:36:01;;;;;;;;;;;5.70;99.90;;;;;;5028722;28;20477;-57
2022/03/25 00:38:30;;;;;;;42.78;18.15;;;5.60;99.90;;;;;;5010399;28;19921;-56
2022/03/25 00:40:58;;;;;;;49.05;19.00;;;5.60;99.90;;;;;;5024336;28;20503;-57
2022/03/25 00:43:27;;;;;;;45.40;17.98;;;5.60;99.90;;;;;;5010254;28;20072;-57
2022/03/25 00:45:55;;;;;;;43.53;18.92;;;5.50;99.90;;;;;;5027876;28;20060;-57
2022/03/25 00:48:22;;;;;;;45.97;19.05;;;5.50;99.90;;;;;;5010294;28;20608;-57
2022/03/25 00:50:50;;;;;;;44.28;19.02;;;5.50;99.90;;;;;;5028282;28;20037;-57
2022/03/25 00:53:19;;;;;;;54.17;21.17;;;5.40;99.90;;;;;;5028166;28;20041;-57
2022/03/25 00:55:46;;;;;;;51.47;20.92;;;5.40;99.90;;;;;;5023029;28;20045;-57
2022/03/25 00:58:14;;;;;;;46.40;19.48;;;5.40;99.90;;;;;;5010473;28;20041;-57
2022/03/25 01:00:42;;;;;;;43.85;18.45;;;5.40;99.90;;;;;;5027139;28;20048;-57
2022/03/25 01:03:11;;;;;;;44.75;18.73;;;5.40;99.90;;;;;;5021348;28;20492;-58
2022/03/25 01:05:39;;;;;;;46.58;19.45;;;5.40;99.90;;;;;;4989717;28;20045;-57
2022/03/25 01:08:09;;;;;;;44.83;19.05;;;5.40;99.90;;;;;;5023171;28;20056;-58
2022/03/25 01:10:37;;;;;;;50.47;19.92;;;5.30;99.90;;;;;;5026449;28;20052;-58
2022/03/25 01:13:06;;;;;;;46.83;20.02;;;5.30;99.90;;;;;;5027584;28;20405;-58
2022/03/25 01:15:34;;;;;;;;;;;5.30;99.90;;;;;;5027909;28;20046;-58
2022/03/25 01:18:03;;;;;;;57.25;22.98;;;5.20;99.90;;;;;;5029935;28;19921;-57
2022/03/25 01:20:32;;;;;;;54.47;20.23;;;5.20;99.90;;;;;;5014183;28;20046;-58
2022/03/25 01:22:59;;;;;;;57.10;20.67;;;5.10;99.90;;;;;;5031137;28;20548;-58
2022/03/25 01:25:27;;;;;;;53.92;20.63;;;5.10;99.90;;;;;;5018887;28;20046;-58
2022/03/25 01:27:58;;;;;;;58.10;21.13;;;5.00;99.90;;;;;;5016149;28;20049;-57
2022/03/25 01:30:28;;;;;;;44.05;19.23;;;5.00;99.90;;;;;;5013854;28;20054;-57
2022/03/25 01:32:56;;;;;;;51.35;19.55;;;4.90;99.90;;;;;;5031182;28;20049;-58
2022/03/25 01:35:24;;;;;;;44.55;19.10;;;4.90;99.90;;;;;;5031556;28;20485;-57
2022/03/25 01:37:52;;;;;;;43.88;20.73;;;4.90;99.90;;;;;;5030789;28;20041;-58
2022/03/25 01:40:20;;;;;;;49.42;21.10;;;4.80;99.90;;;;;;5028827;28;20049;-58
2022/03/25 01:42:49;;;;;;;55.28;20.83;;;4.80;99.90;;;;;;5001292;28;20049;-58
2022/03/25 01:45:34;;;;;;;45.88;18.58;;;4.80;99.90;;;;;;5013890;28;20205;-57
2022/03/25 01:48:08;;;;;;;46.30;18.58;;;4.80;99.90;;;;;;5031088;28;20596;-57
2022/03/25 01:50:38;;;;;;;46.50;19.58;;;4.70;99.90;;;;;;5031330;28;20054;-58
2022/03/25 01:53:12;;;;;;;50.05;18.52;;;4.70;99.90;;;;;;5031139;28;20038;-57
2022/03/25 01:55:56;;;;;;;45.00;18.48;;;4.70;99.90;;;;;;5012956;28;20302;-58
2022/03/25 01:58:30;;;;;;;45.50;19.73;;;4.70;99.90;;;;;;5002007;28;20040;-58
2022/03/25 02:00:59;;;;;;;47.83;19.38;;;4.70;99.90;;;;;;5013067;28;20061;-57
2022/03/25 02:03:27;;;;;;;43.10;18.50;;;4.60;99.90;;;;;;4997448;28;20100;-59
2022/03/25 02:05:58;;;;;;;51.20;19.85;;;4.60;99.90;;;;;;5013515;28;20056;-59
2022/03/25 02:08:27;;;;;;;48.08;19.73;;;4.60;99.90;;;;;;5012933;28;20575;-59
2022/03/25 02:10:55;;;;;;;46.92;19.65;;;4.60;99.90;;;;;;5027814;28;20053;-59
2022/03/25 02:13:23;;;;;;;46.00;20.02;;;4.50;99.90;;;;;;5031142;28;20049;-59
2022/03/25 02:15:56;;;;;;;50.42;20.13;;;4.50;99.90;;;;;;5013095;28;20041;-59
2022/03/25 02:18:25;;;;;;;45.47;19.80;;;4.50;99.90;;;;;;5013118;28;20053;-59
2022/03/25 02:20:52;;;;;;;53.13;20.08;;;4.40;99.90;;;;;;5029975;28;20497;-59
2022/03/25 02:23:23;;;;;;;47.75;20.13;;;4.40;99.90;;;;;;4997083;28;20037;-59
2022/03/25 02:25:53;;;;;;;53.13;20.50;;;4.40;99.90;;;;;;5026747;28;20413;-59
2022/03/25 02:28:23;;;;;;;53.85;21.08;;;4.30;99.90;;;;;;5017148;28;20038;-59
2022/03/25 02:30:54;;;;;;;59.38;21.67;;;4.30;99.90;;;;;;5009764;28;20041;-58
2022/03/25 02:33:22;;;;;;;47.42;19.38;;;4.30;99.90;;;;;;4998597;28;20053;-59
2022/03/25 02:35:51;;;;;;;47.83;19.30;;;4.30;99.90;;;;;;4996187;28;20506;-58
2022/03/25 02:38:22;;;;;;;58.75;19.65;;;4.30;99.90;;;;;;5019510;28;20037;-58
2022/03/25 02:40:51;;;;;;;50.15;20.33;;;4.20;99.90;;;;;;5030829;28;20038;-59
2022/03/25 02:43:19;;;;;;;55.58;20.23;;;4.20;99.90;;;;;;4996072;28;20263;-59
2022/03/25 02:46:00;;;;;;;47.17;20.05;;;4.20;99.90;;;;;;5002155;28;20374;-58
2022/03/25 02:48:28;;;;;;;45.03;20.60;;;4.10;99.90;;;;;;5033320;28;20046;-58
2022/03/25 02:50:56;;;;;;;50.70;20.17;;;4.10;99.90;;;;;;5033057;28;20052;-58
2022/03/25 02:53:24;;;;;;;50.65;20.67;;;4.10;99.90;;;;;;5033382;28;20528;-58
2022/03/25 02:55:52;;;;;;;48.70;19.67;;;4.10;99.90;;;;;;5032590;28;20053;-58
2022/03/25 02:58:20;;;;;;;46.78;18.88;;;4.10;99.90;;;;;;5032047;28;20056;-58
2022/03/25 03:00:48;;;;;;;52.40;20.90;;;4.10;99.90;;;;;;5032920;28;20054;-58
2022/03/25 03:03:16;;;;;;;48.63;20.25;;;4.10;99.90;;;;;;5033181;28;20046;-58
2022/03/25 03:05:44;;;;;;;49.92;20.83;;;4.00;99.90;;;;;;5032974;28;20049;-58
2022/03/25 03:08:12;;;;;;;49.22;19.63;;;4.00;99.90;;;;;;5026823;28;20053;-58
2022/03/25 03:10:41;;;;;;;45.85;19.10;;;3.90;99.90;;;;;;5033181;28;20057;-58
2022/03/25 03:13:09;;;;;;;48.83;20.10;;;3.90;99.90;;;;;;5032815;28;20053;-58
2022/03/25 03:15:37;;;;;;;47.20;19.30;;;3.90;99.90;;;;;;5033040;28;20045;-58
2022/03/25 03:18:06;;;;;;;50.03;19.85;;;3.90;99.90;;;;;;5032894;28;20397;-58
2022/03/25 03:20:34;;;;;;;53.90;20.70;;;3.90;99.90;;;;;;5032838;28;20053;-58
2022/03/25 03:23:02;;;;;;;57.03;19.35;;;3.80;99.90;;;;;;5032883;28;20045;-58
2022/03/25 03:25:29;;;;;;;47.00;21.38;;;3.80;99.90;;;;;;5032796;28;20053;-58
2022/03/25 03:27:57;;;;;;;51.03;20.05;;;3.80;99.90;;;;;;5032857;28;20045;-57
2022/03/25 03:30:24;;;;;;;54.00;21.45;;;3.80;99.90;;;;;;5032666;28;20053;-58
2022/03/25 03:32:57;;;;;;;52.70;19.10;;;3.80;99.90;;;;;;5032826;28;20044;-57
2022/03/25 03:35:26;;;;;;;52.80;20.40;;;3.80;99.90;;;;;;5032661;28;20052;-57
2022/03/25 03:37:54;;;;;;;59.72;20.17;;;3.70;99.90;;;;;;5032626;28;20049;-57
2022/03/25 03:40:22;;;;;;;46.50;18.65;;;3.70;99.90;;;;;;5032572;28;20049;-58
2022/03/25 03:42:50;;;;;;;60.00;19.88;;;3.60;99.90;;;;;;5032458;28;20053;-57
2022/03/25 03:45:18;;;;;;;50.75;19.52;;;3.60;99.90;;;;;;5032537;28;20064;-58
2022/03/25 03:47:46;;;;;;;71.07;22.73;;;3.60;99.90;;;;;;5032420;28;20045;-57
2022/03/25 03:50:16;;;;;;;52.70;22.60;;;3.50;99.90;;;;;;5032396;28;20405;-58
2022/03/25 03:52:45;;;;;;;57.67;20.63;;;3.50;99.90;;;;;;5031192;28;20633;-58
2022/03/25 03:55:13;;;;;;;57.60;20.08;;;3.50;99.90;;;;;;5032346;28;20057;-58
2022/03/25 03:58:00;;;;;;;47.67;20.48;;;3.50;99.90;;;;;;5032142;28;20052;-58
2022/03/25 04:00:28;;;;;;;54.40;21.92;;;3.40;99.90;;;;;;5032065;28;20056;-57
2022/03/25 04:02:57;;;;;;;50.33;20.45;;;3.40;99.90;;;;;;5032247;28;20042;-58
2022/03/25 04:05:24;;;;;;;50.70;19.83;;;3.40;99.90;;;;;;5032042;28;20053;-58
2022/03/25 04:07:58;;;;;;;56.30;20.70;;;3.40;99.90;;;;;;5032368;28;20469;-58
2022/03/25 04:10:26;;;;;;;53.83;21.63;;;3.40;99.90;;;;;;5030697;28;20050;-57
2022/03/25 04:12:54;;;;;;;52.78;20.27;;;3.30;99.90;;;;;;5030885;28;20041;-57
2022/03/25 04:15:22;;;;;;;58.90;22.15;;;3.40;99.90;;;;;;5031997;28;20485;-58
2022/03/25 04:17:53;;;;;;;48.45;20.38;;;3.30;99.90;;;;;;5014730;28;20042;-57
2022/03/25 04:20:21;;;;;;;56.22;21.58;;;3.30;99.90;;;;;;5030756;28;20060;-57
2022/03/25 04:22:48;;;;;;;56.53;21.58;;;3.20;99.90;;;;;;5031737;28;20053;-57
2022/03/25 04:25:16;;;;;;;50.72;19.02;;;3.20;99.90;;;;;;5031628;28;20512;-57
2022/03/25 04:27:52;;;;;;;57.90;20.52;;;3.20;99.90;;;;;;5031789;28;20053;-57
2022/03/25 04:30:23;;;;;;;55.30;19.85;;;3.20;99.90;;;;;;5031642;28;20056;-58
2022/03/25 04:32:51;;;;;;;49.00;19.58;;;3.20;99.90;;;;;;5031534;28;20057;-58
2022/03/25 04:35:19;;;;;;;48.50;19.73;;;3.20;99.90;;;;;;5031814;28;20477;-58
2022/03/25 04:37:47;;;;;;;49.60;19.45;;;3.10;99.90;;;;;;5031338;28;20050;-58
2022/03/25 04:40:17;;;;;;;53.97;20.80;;;3.10;99.90;;;;;;5031726;28;20382;-58
2022/03/25 04:42:49;;;;;;;59.40;20.73;;;3.10;99.90;;;;;;5031471;28;20049;-58
2022/03/25 04:45:19;;;;;;;57.10;21.20;;;3.10;99.90;;;;;;5030391;28;20045;-58
2022/03/25 04:47:47;;;;;;;52.03;19.57;;;3.00;99.90;;;;;;5031591;28;20044;-57
2022/03/25 04:50:15;;;;;;;60.35;21.17;;;3.00;99.90;;;;;;5031213;28;20303;-58
2022/03/25 04:52:44;;;;;;;49.20;19.27;;;3.00;99.90;;;;;;5036002;28;20042;-57
2022/03/25 04:55:19;;;;;;;46.63;19.48;;;3.00;99.90;;;;;;5037059;28;20393;-58
2022/03/25 04:57:47;;;;;;;48.95;19.67;;;3.00;99.90;;;;;;5036881;28;20045;-57
2022/03/25 05:00:17;;;;;;;47.95;20.08;;;3.00;99.90;;;;;;5037980;28;20045;-56
2022/03/25 05:02:45;;;;;;;52.42;19.63;;;3.00;99.90;;;;;;5038073;28;20573;-57
2022/03/25 05:05:13;;;;;;;53.78;19.55;;;2.90;99.90;;;;;;5037924;28;20045;-57
2022/03/25 05:07:43;;;;;;;53.53;19.90;;;2.90;99.90;;;;;;5038130;28;20045;-58
2022/03/25 05:10:13;;;;;;;53.15;21.35;;;2.90;99.90;;;;;;5036733;28;20053;-59
2022/03/25 05:12:42;;;;;;;48.15;19.60;;;2.90;99.90;;;;;;5036355;28;20057;-58
2022/03/25 05:15:11;;;;;;;57.20;21.80;;;2.80;99.90;;;;;;5037802;28;20042;-58
2022/03/25 05:17:57;;;;;;;49.35;20.30;;;2.80;99.90;;;;;;5037884;28;20496;-58
2022/03/25 05:20:25;;;;;;;49.78;19.00;;;2.80;99.90;;;;;;5036722;28;20048;-58
2022/03/25 05:22:53;;;;;;;60.35;20.23;;;2.70;99.90;;;;;;5037631;28;20041;-57
2022/03/25 05:25:24;;;;;;;60.90;20.33;;;2.80;99.90;;;;;;5037848;28;20048;-58
2022/03/25 05:27:54;;;;;;;59.53;20.35;;;2.80;99.90;;;;;;5037798;28;20137;-58
2022/03/25 05:30:31;;;;;;;54.70;20.88;;;2.70;99.90;;;;;;5037696;28;20060;-58
2022/03/25 05:32:59;;;;;;;52.28;19.55;;;2.70;99.90;;;;;;5037627;28;20045;-57
2022/03/25 05:35:29;;;;;;;53.92;21.00;;;2.70;99.90;;;;;;5037858;28;20052;-57
2022/03/25 05:37:57;;;;;;;57.17;20.13;;;2.70;99.90;;;;;;5037762;28;20041;-56
2022/03/25 05:40:26;;;;;;;55.10;21.02;;;2.60;99.90;;;;;;5036528;28;20045;-57
2022/03/25 05:42:56;;;;;;;61.08;21.98;;;2.60;99.90;;;;;;5036214;28;20493;-56
2022/03/25 05:45:24;;;;;;;62.05;21.30;;;2.60;99.90;;;;;;5036455;28;20429;-57
2022/03/25 05:47:52;;;;;;;51.20;19.02;;;2.60;99.90;;;;;;5029000;28;20053;-57
2022/03/25 05:50:20;;;;;;;60.28;22.27;;;2.60;99.90;;;;;;4996948;28;20049;-57
2022/03/25 05:52:47;;;;;;;62.63;20.85;;;2.60;99.90;;;;;;5014420;28;20050;-57
2022/03/25 05:55:19;;;;;;;58.58;21.02;;;2.50;99.90;;;;;;5014322;28;20042;-57
2022/03/25 05:57:47;;;;;;;51.90;19.67;;;2.50;99.90;;;;;;5022492;28;20048;-57
2022/03/25 06:00:18;;;;;;;58.53;21.48;;;2.50;99.90;;;;;;5017230;28;20049;-57
2022/03/25 06:02:46;;;;;;;59.70;21.45;;;2.50;99.90;;;;;;5018953;28;20056;-58
2022/03/25 06:05:24;;;;;;;55.28;21.00;;;2.50;99.90;;;;;;5006539;28;20054;-58
2022/03/25 06:07:55;;;;;;;57.65;21.25;;;2.50;99.90;;;;;;5008542;28;20045;-57
2022/03/25 06:10:25;;;;;;;61.60;21.08;;;2.50;99.90;;;;;;5009937;28;20411;-58
2022/03/25 06:12:56;;;;;;;57.67;21.02;;;2.50;99.90;;;;;;5026060;28;20236;-58
2022/03/25 06:15:26;;;;;;;61.28;22.65;;;2.50;99.90;;;;;;5015031;28;20213;-59
2022/03/25 06:17:54;;;;;;;60.85;21.67;;;2.40;99.90;;;;;;5023390;28;20049;-59
2022/03/25 06:20:27;;;;;;;64.47;21.05;;;2.40;99.90;;;;;;5012528;28;20054;-59
2022/03/25 06:22:57;;;;;;;58.67;21.42;;;2.40;99.90;;;;;;5030278;28;20048;-59
2022/03/25 06:25:24;;;;;;;52.15;20.42;;;2.40;99.90;;;;;;5013032;28;20045;-57
2022/03/25 06:27:54;;;;;;;52.15;20.35;;;2.40;99.90;;;;;;5030092;28;20068;-57
2022/03/25 06:30:26;;;;;;;63.92;21.65;;;2.50;99.90;;;;;;5029997;28;20049;-57
2022/03/25 06:32:55;;;;;;;63.00;22.88;;;2.40;99.90;;;;;;5022545;28;20046;-57
2022/03/25 06:35:28;;;;;;;57.60;19.92;;;2.50;99.90;;;;;;5026705;28;20397;-58
2022/03/25 06:37:56;;;;;;;57.55;21.40;;;2.50;99.90;;;;;;5027857;28;20103;-58
2022/03/25 06:40:25;;;;;;;59.35;21.67;;;2.50;99.90;;;;;;5012635;28;20068;-58
2022/03/25 06:42:54;;;;;;;72.38;22.17;;;2.50;99.90;;;;;;5029490;28;20042;-58
2022/03/25 06:45:23;;;;;;;66.57;23.37;;;2.50;99.90;;;;;;5030052;28;20068;-57
2022/03/25 06:48:12;;;;;;;61.50;20.48;;;2.60;99.90;;;;;;5026930;28;20294;-57
2022/03/25 06:50:42;;;;;;;61.22;20.65;;;2.60;99.90;;;;;;5010659;28;20046;-57
2022/03/25 06:53:11;;;;;;;57.83;20.73;;;2.60;99.90;;;;;;5020222;28;20064;-58
2022/03/25 06:55:40;;;;;;;63.90;22.58;;;2.60;99.90;;;;;;5011123;28;20790;-58
2022/03/25 06:58:09;;;;;;;69.90;23.85;;;2.70;99.90;;;;;;5026288;28;20046;-58
2022/03/25 07:00:37;;;;;;;64.38;23.10;;;2.80;99.90;;;;;;5026806;28;20129;-57
2022/03/25 07:03:06;;;;;;;68.57;23.00;;;3.00;99.90;;;;;;5023445;28;20422;-57
2022/03/25 07:05:36;;;;;;;61.60;21.83;;;2.90;99.90;;;;;;4989503;28;20053;-57
2022/03/25 07:08:05;;;;;;;63.03;24.20;;;2.90;99.90;;;;;;5018173;28;20048;-57
2022/03/25 07:10:33;;;;;;;62.53;22.40;;;3.00;99.90;;;;;;5029430;28;20044;-56
2022/03/25 07:13:01;;;;;;;67.03;22.30;;;3.10;99.90;;;;;;5029379;28;20058;-58
2022/03/25 07:15:30;;;;;;;66.47;23.75;;;3.20;99.90;;;;;;5029236;28;20049;-58
2022/03/25 07:17:58;;;;;;;73.82;22.92;;;3.20;99.90;;;;;;5026625;28;20050;-57
2022/03/25 07:20:27;;;;;;;73.53;23.42;;;3.30;99.90;;;;;;5008288;28;20049;-58
2022/03/25 07:22:56;;;;;;;67.97;24.80;;;3.40;99.90;;;;;;5013847;28;20049;-57
2022/03/25 07:25:25;;;;;;;76.55;26.10;;;3.50;99.90;;;;;;5025558;28;20503;-57
2022/03/25 07:27:53;;;;;;;75.65;23.77;;;3.50;99.90;;;;;;5029001;28;20041;-57
2022/03/25 07:30:21;;;;;;;69.68;22.30;;;3.70;99.90;;;;;;5027404;28;20049;-58
2022/03/25 07:32:49;;;;;;;71.53;23.50;;;3.80;99.90;;;;;;5029298;28;20061;-57
2022/03/25 07:35:18;;;;;;;66.57;23.30;;;3.90;99.90;;;;;;5029001;28;20049;-59
2022/03/25 07:37:46;;;;;;;62.80;23.42;;;4.00;99.90;;;;;;5011834;28;20463;-57
2022/03/25 07:40:14;;;;;;;68.00;24.70;;;4.10;99.90;;;;;;5029312;28;20397;-59
2022/03/25 07:42:43;;;;;;;77.40;24.08;;;4.20;99.90;;;;;;5010747;28;20046;-59
2022/03/25 07:45:15;;;;;;;64.03;23.00;;;4.20;99.90;;;;;;5011736;28;20052;-59
2022/03/25 07:47:45;;;;;;;67.63;24.63;;;4.40;99.90;;;;;;5029064;28;20213;-59
2022/03/25 07:50:16;;;;;;;68.65;25.30;;;4.60;99.90;;;;;;5027271;28;20389;-59
2022/03/25 07:52:45;;;;;;;67.75;23.73;;;4.70;99.90;;;;;;5027716;28;20497;-57
2022/03/25 07:55:16;;;;;;;76.72;25.10;;;4.80;99.90;;;;;;5027475;28;20049;-57
2022/03/25 07:57:45;;;;;;;59.75;23.75;;;5.00;99.90;;;;;;5004658;28;20037;-58
2022/03/25 08:00:14;;;;;;;66.05;24.42;;;5.10;99.90;;;;;;5022959;28;20553;-58
2022/03/25 08:02:44;;;;;;;66.03;23.23;;;5.20;99.90;;;;;;5021082;28;20485;-58
2022/03/25 08:05:14;;;;;;;67.45;23.83;;;5.40;99.90;;;;;;5007404;28;20050;-58
2022/03/25 08:07:49;;;;;;;69.43;26.00;;;5.50;99.90;;;;;;5023026;28;20072;-58
2022/03/25 08:10:25;;;;;;;68.13;25.05;;;5.70;99.90;;;;;;5010379;28;20046;-58
2022/03/25 08:12:54;;;;;;;62.08;23.73;;;5.80;99.90;;;;;;5026535;28;20056;-57
2022/03/25 08:15:24;;;;;;;71.95;25.25;;;5.90;99.90;;;;;;5022789;28;20049;-59
2022/03/25 08:17:55;;;;;;;;;;;6.10;99.90;;;;;;5026120;28;20041;-58
2022/03/25 08:20:28;;;;;;;59.63;25.20;;;6.20;99.90;;;;;;5023205;28;19921;-58
2022/03/25 08:22:58;;;;;;;73.50;25.58;;;6.40;99.90;;;;;;5023416;28;20049;-58
2022/03/25 08:28:14;;;;;;;70.88;24.60;;;6.70;99.90;;;;;;5022843;28;20052;-58
2022/03/25 08:30:43;;;;;;;72.57;24.65;;;6.90;99.90;;;;;;5003423;28;20053;-58
2022/03/25 08:33:11;;;;;;;66.60;26.63;;;7.00;99.90;;;;;;5025904;28;20045;-56
2022/03/25 08:35:40;;;;;;;64.50;25.30;;;7.20;99.90;;;;;;4993994;28;20057;-56
2022/03/25 08:38:09;;;;;;;63.53;26.00;;;7.40;99.90;;;;;;5012522;28;20049;-56
2022/03/25 08:40:37;;;;;;;68.57;26.83;;;7.60;99.90;;;;;;5025488;28;20052;-56
2022/03/25 08:43:26;;;;;;;68.07;25.65;;;7.80;99.90;;;;;;5010158;28;20072;-57
2022/03/25 08:45:54;;;;;;;75.28;26.67;;;8.00;99.90;;;;;;5028046;28;20050;-56
2022/03/25 08:48:22;;;;;;;65.47;25.42;;;8.10;99.90;;;;;;5017801;28;20041;-57
2022/03/25 08:50:50;;;;;;;62.95;25.92;;;8.30;99.90;;;;;;5019903;28;20056;-57
2022/03/25 08:53:18;;;;;;;64.95;26.20;;;8.50;99.90;;;;;;5010482;28;20041;-57
2022/03/25 08:55:46;;;;;;;70.75;26.55;;;8.60;99.90;;;;;;5028206;28;20053;-57
2022/03/25 08:58:14;;;;;;;79.13;26.58;;;8.70;99.90;;;;;;5027350;28;20049;-56
2022/03/25 09:00:42;;;;;;;64.28;25.02;;;8.90;99.90;;;;;;5025527;28;20045;-56
2022/03/25 09:03:10;;;;;;;64.53;25.85;;;9.00;99.90;;;;;;5002723;28;20283;-56
2022/03/25 09:05:39;;;;;;;63.35;24.80;;;9.20;99.90;;;;;;5019001;28;20524;-56
2022/03/25 09:08:07;;;;;;;62.45;24.58;;;9.30;99.90;;;;;;5023109;28;20045;-56
2022/03/25 09:10:34;;;;;;;67.28;25.08;;;9.40;99.90;;;;;;5027736;28;20046;-56
2022/03/25 09:13:02;;;;;;;65.65;26.13;;;9.60;99.90;;;;;;5026708;28;20049;-56
2022/03/25 09:15:31;;;;;;;61.38;24.02;;;9.70;99.90;;;;;;5027813;28;20045;-56
2022/03/25 09:17:58;;;;;;;61.50;24.88;;;10.00;99.90;;;;;;5022957;28;20058;-57
2022/03/25 09:20:26;;;;;;;63.15;25.02;;;10.20;99.90;;;;;;5017671;28;20046;-57
2022/03/25 09:22:56;;;;;;;68.97;24.88;;;10.40;99.90;;;;;;5027169;28;20508;-56
2022/03/25 09:25:23;;;;;;;;;;;10.60;99.90;;;;;;5010342;28;20046;-56
2022/03/25 09:27:51;;;;;;;56.33;24.35;;;10.80;99.90;;;;;;5015196;28;19925;-57
2022/03/25 09:30:24;;;;;;;66.95;25.08;;;11.10;99.90;;;;;;5026737;28;20038;-56
2022/03/25 09:33:08;;;;;;;64.82;23.65;;;11.30;99.90;;;;;;5019901;28;20056;-56
2022/03/25 09:35:38;;;;;;;63.88;24.15;;;11.60;99.90;;;;;;5027469;28;20042;-56
2022/03/25 09:38:06;;;;;;;58.45;23.92;;;11.80;99.90;;;;;;5027897;28;20513;-56
2022/03/25 09:40:35;;;;;;;55.60;22.75;;;12.00;99.90;;;;;;5030941;28;20493;-56
2022/03/25 09:43:05;;;;;;;58.80;21.58;;;12.20;99.90;;;;;;5031216;28;20068;-56
2022/03/25 09:45:34;;;;;;;46.17;20.40;;;12.40;99.90;;;;;;5013536;28;20485;-56
2022/03/25 09:48:03;;;;;;;51.17;21.08;;;12.60;99.40;;;;;;5027051;28;20056;-56
2022/03/25 09:50:33;;;;;;;54.47;21.13;;;12.90;99.00;;;;;;5024637;28;20049;-57
2022/03/25 09:53:01;;;;;;;55.75;22.77;;;13.10;97.10;;;;;;5028255;28;20049;-57
2022/03/25 09:55:40;;;;;;;51.90;22.30;;;13.30;94.80;;;;;;5024900;28;20056;-57
2022/03/25 09:58:12;;;;;;;47.28;20.70;;;13.60;94.00;;;;;;5029716;28;20064;-57
2022/03/25 10:00:40;;;;;;;51.40;22.10;;;13.80;91.90;;;;;;5030192;28;20409;-57
2022/03/25 10:03:12;;;;;;;53.75;23.00;;;13.90;91.80;;;;;;5020147;28;20068;-57
2022/03/25 10:05:57;;;;;;;51.58;20.90;;;14.00;90.70;;;;;;5028186;28;20046;-56
2022/03/25 10:08:34;;;;;;;47.35;19.90;;;14.20;90.20;;;;;;5020709;28;20038;-56
2022/03/25 10:11:24;;;;;;;69.75;21.25;;;14.30;85.70;;;;;;4999854;28;20378;-56
2022/03/25 10:14:30;;;;;;;43.42;19.98;;;14.40;85.40;;;;;;5029964;28;20050;-56
2022/03/25 10:17:07;;;;;;;48.60;18.70;;;14.60;80.50;;;;;;4965870;28;20090;-57
2022/03/25 10:19:47;;;;;;;39.60;18.27;;;14.80;77.70;;;;;;4975864;28;20054;-57
2022/03/25 10:22:18;;;;;;;45.83;19.90;;;15.00;77.50;;;;;;5004088;28;20053;-57
2022/03/25 10:24:49;;;;;;;57.63;18.58;;;15.10;76.50;;;;;;5027756;28;20405;-57
2022/03/25 10:27:25;;;;;;;32.05;15.02;;;15.20;73.50;;;;;;5024721;28;20046;-57
2022/03/25 10:29:54;;;;;;;41.83;16.27;;;15.30;67.90;;;;;;5009126;28;20053;-57
2022/03/25 10:32:25;;;;;;;48.88;16.02;;;15.40;68.80;;;;;;5024132;28;20077;-57
2022/03/25 10:35:13;;;;;;;39.45;15.73;;;15.60;67.90;;;;;;5024425;28;20041;-57
2022/03/25 10:37:58;;;;;;;37.10;16.00;;;15.70;66.30;;;;;;5028955;28;20045;-57
2022/03/25 10:40:26;;;;;;;30.67;12.73;;;15.90;64.60;;;;;;5028324;28;20385;-56
2022/03/25 10:43:08;;;;;;;36.80;13.15;;;16.00;63.60;;;;;;5017212;28;20060;-57
2022/03/25 10:45:41;;;;;;;42.83;14.05;;;16.20;63.00;;;;;;5013254;28;20050;-57
2022/03/25 10:48:13;;;;;;;30.42;13.98;;;16.40;62.00;;;;;;5028430;28;20045;-57
2022/03/25 10:51:13;;;;;;;32.60;13.77;;;16.50;60.00;;;;;;5028987;28;20693;-58
2022/03/25 10:53:43;;;;;;;37.70;13.45;;;16.50;60.30;;;;;;4975124;28;20529;-58
2022/03/25 10:56:11;;;;;;;25.27;11.95;;;16.50;60.60;;;;;;5028715;28;20045;-58
2022/03/25 10:58:49;;;;;;;32.75;12.88;;;16.70;59.10;;;;;;5029122;28;20046;-57
2022/03/25 11:01:17;;;;;;;40.97;13.73;;;16.80;59.20;;;;;;5030093;28;20049;-57
2022/03/25 11:03:48;;;;;;;32.40;14.63;;;17.00;59.00;;;;;;5011924;28;20061;-58
2022/03/25 11:06:18;;;;;;;32.97;13.60;;;16.90;58.80;;;;;;5027004;28;20685;-57
2022/03/25 11:08:47;;;;;;;29.60;11.95;;;17.00;58.00;;;;;;5005696;28;20046;-57
2022/03/25 11:11:16;;;;;;;26.40;11.10;;;17.00;58.20;;;;;;5026799;28;20046;-58
2022/03/25 11:13:45;;;;;;;128.00;18.25;;;16.90;57.30;;;;;;5022430;28;20052;-57
2022/03/25 11:16:16;;;;;;;37.08;11.70;;;16.80;57.90;;;;;;5019874;28;20042;-58
2022/03/25 11:18:44;;;;;;;27.13;10.80;;;16.80;58.00;;;;;;5026491;28;20567;-58
2022/03/25 11:21:13;;;;;;;23.38;11.45;;;16.70;57.20;;;;;;5027564;28;20056;-57
2022/03/25 11:23:51;;;;;;;25.52;12.32;;;16.70;57.60;;;;;;5026865;28;20045;-57
2022/03/25 11:26:23;;;;;;;27.27;12.65;;;16.70;56.40;;;;;;5029141;28;20046;-58
2022/03/25 11:28:56;;;;;;;26.55;11.38;;;16.60;56.40;;;;;;5028153;28;20046;-58
2022/03/25 11:31:27;;;;;;;45.08;11.85;;;16.50;56.30;;;;;;5012454;28;20053;-58
2022/03/25 11:34:16;;;;;;;29.67;10.30;;;16.40;57.00;;;;;;5028022;28;20521;-58
2022/03/25 11:37:17;;;;;;;24.80;9.50;;;16.40;58.00;;;;;;5011584;28;20049;-58
2022/03/25 11:39:45;;;;;;;24.23;9.13;;;16.60;57.80;;;;;;5028634;28;20049;-58
2022/03/25 11:42:40;;;;;;;28.00;10.20;;;16.80;57.80;;;;;;5029053;28;20539;-58
2022/03/25 11:45:32;;;;;;;28.33;10.35;;;17.20;57.80;;;;;;5022377;28;20049;-58
2022/03/25 11:48:00;;;;;;;21.38;11.00;;;17.50;57.10;;;;;;5017973;28;20052;-58
2022/03/25 11:50:31;;;;;;;24.60;10.60;;;17.80;57.40;;;;;;5028820;28;20048;-58
2022/03/25 11:53:20;;;;;;;22.67;10.73;;;18.10;57.20;;;;;;5026196;28;20049;-58
2022/03/25 11:56:00;;;;;;;22.33;10.17;;;18.40;56.00;;;;;;5011287;28;20041;-58
2022/03/25 11:58:29;;;;;;;;;;;18.60;55.30;;;;;;5029169;28;20632;-58
2022/03/25 12:01:12;;;;;;;26.60;10.75;;;18.70;55.60;;;;;;5021857;28;19926;-57
2022/03/25 12:03:49;;;;;;;26.60;11.90;;;18.90;56.40;;;;;;5028143;28;20048;-58
2022/03/25 12:06:22;;;;;;;20.52;10.85;;;19.20;55.60;;;;;;5017620;28;20049;-58
2022/03/25 12:09:06;;;;;;;24.58;11.73;;;19.50;55.70;;;;;;5023071;28;20534;-58
2022/03/25 12:11:56;;;;;;;20.52;10.82;;;19.60;54.90;;;;;;5020812;28;21698;-58
2022/03/25 12:14:36;;;;;;;22.52;11.10;;;19.90;54.20;;;;;;5018072;28;20494;-58
2022/03/25 12:17:06;;;;;;;29.02;11.25;;;20.20;54.50;;;;;;5009570;28;20521;-58
2022/03/25 12:19:39;;;;;;;22.17;10.75;;;20.40;55.00;;;;;;5028690;28;20041;-58
2022/03/25 12:22:22;;;;;;;24.20;12.48;;;20.70;54.50;;;;;;5023555;28;20049;-58
2022/03/25 12:24:59;;;;;;;28.42;11.75;;;21.00;52.90;;;;;;4991230;28;20414;-58
2022/03/25 12:27:26;;;;;;;21.60;10.90;;;21.20;52.70;;;;;;5012597;28;20425;-59
2022/03/25 12:29:55;;;;;;;25.13;12.02;;;21.30;52.40;;;;;;5028406;28;20072;-58
2022/03/25 12:32:24;;;;;;;22.20;10.65;;;21.40;50.90;;;;;;5027509;28;20049;-58
2022/03/25 12:35:16;;;;;;;25.33;12.40;;;21.50;50.60;;;;;;5028438;28;20050;-58
2022/03/25 12:37:52;;;;;;;30.33;13.18;;;21.60;50.50;;;;;;5025785;28;20041;-58
2022/03/25 12:40:25;;;;;;;26.40;12.65;;;21.60;50.10;;;;;;5028735;28;20049;-58
2022/03/25 12:42:59;;;;;;;24.23;11.88;;;21.70;50.40;;;;;;5028136;28;20056;-58
2022/03/25 12:45:49;;;;;;;22.08;10.07;;;21.90;50.20;;;;;;5028341;28;20049;-58
2022/03/25 12:48:19;;;;;;;20.65;10.40;;;22.10;49.00;;;;;;5028008;28;20045;-58
2022/03/25 12:50:57;;;;;;;21.50;11.52;;;22.10;49.60;;;;;;5028235;28;20336;-58
2022/03/25 12:53:27;;;;;;;21.17;10.85;;;22.10;48.00;;;;;;5023611;28;20048;-58
2022/03/25 12:55:56;;;;;;;23.90;13.45;;;22.10;49.30;;;;;;5020609;28;20049;-58
2022/03/25 12:58:24;;;;;;;30.47;13.20;;;22.10;48.50;;;;;;5000982;28;20053;-58